This is the latest recevied weather packets stored in our database for station/object PP5ABU-13. If no packets are shown the sender has not sent any weather packets the latest 10 day(s).
| Time | Temp. | Humidity | Pressure | Rain* | Wind** | Luminosity | Snow |
|---|---|---|---|---|---|---|---|
| 1777572904 | 27.22° C | 63% | 1014 hPa | 0 mm | - | - | - |
| 1777572004 | 27.78° C | 60% | 1013.9 hPa | 0 mm | - | - | - |
| 1777571104 | 27.78° C | 60% | 1013.8 hPa | 0 mm | - | - | - |
| 1777570204 | 27.78° C | 60% | 1014 hPa | 0 mm | - | - | - |
| 1777569304 | 27.78° C | 58% | 1014.1 hPa | 0 mm | - | - | - |
| 1777568404 | 27.78° C | 59% | 1014.2 hPa | 0 mm | - | - | - |
| 1777567504 | 27.78° C | 60% | 1014.4 hPa | 0 mm | - | - | - |
| 1777566604 | 27.78° C | 57% | 1014.3 hPa | 0 mm | - | - | - |
| 1777565705 | 27.78° C | 57% | 1014.6 hPa | 0 mm | - | - | - |
| 1777564804 | 27.22° C | 60% | 1014.6 hPa | 0 mm | - | - | - |
| 1777563904 | 27.22° C | 60% | 1014.9 hPa | 0 mm | - | - | - |
| 1777563004 | 27.22° C | 56% | 1014.9 hPa | 0 mm | - | - | - |
| 1777562104 | 27.22° C | 58% | 1015.1 hPa | 0 mm | - | - | - |
| 1777561205 | 26.67° C | 64% | 1015.1 hPa | 0 mm | - | - | - |
| 1777560304 | 26.11° C | 68% | 1015.4 hPa | 0 mm | - | - | - |
| 1777559404 | 26.11° C | 70% | 1015.5 hPa | 0 mm | - | - | - |
| 1777558504 | 25° C | 72% | 1015.6 hPa | 0 mm | - | - | - |
| 1777557604 | 24.44° C | 74% | 1015.8 hPa | 0 mm | - | - | - |
| 1777556704 | 23.33° C | 75% | 1015.7 hPa | 0 mm | - | - | - |
| 1777555804 | 23.33° C | 76% | 1015.7 hPa | 0 mm | - | - | - |
| 1777554905 | 22.78° C | 78% | 1015.9 hPa | 0 mm | - | - | - |
| 1777554004 | 22.22° C | 83% | 1016.1 hPa | 0 mm | - | - | - |
| 1777553105 | 21.67° C | 87% | 1016 hPa | 0 mm | - | - | - |
| 1777552204 | 21.11° C | 90% | 1015.8 hPa | 0 mm | - | - | - |
| 1777551304 | 20.56° C | 95% | 1015.7 hPa | 0 mm | - | - | - |
* Rain latest hour (hover to see other rain measurements)
** Current wind speed in m/s (hover to see current wind gust speed)